createdAt,value
2023-05-09T00:02:43.473Z,16.00
2023-05-09T00:12:50.397Z,16.00
2023-05-09T00:22:57.699Z,16.00
2023-05-09T00:33:04.592Z,16.00
2023-05-09T00:43:11.977Z,16.00
2023-05-09T00:53:18.589Z,16.00
2023-05-09T01:03:26.264Z,16.00
2023-05-09T01:13:33.671Z,16.00
2023-05-09T01:23:40.826Z,16.00
2023-05-09T01:33:47.708Z,16.00
2023-05-09T01:43:54.934Z,16.00
2023-05-09T01:54:02.258Z,16.00
2023-05-09T02:04:09.077Z,16.00
2023-05-09T02:14:15.730Z,16.00
2023-05-09T02:24:22.991Z,16.00
2023-05-09T02:34:30.312Z,16.00
2023-05-09T02:44:37.417Z,16.00
2023-05-09T02:54:44.009Z,16.00
2023-05-09T03:04:51.231Z,16.00
2023-05-09T03:14:58.298Z,20.00
2023-05-09T03:25:05.558Z,20.00
2023-05-09T03:35:12.762Z,24.00
2023-05-09T03:45:20.322Z,28.00
2023-05-09T03:55:27.576Z,32.00
2023-05-09T04:05:34.547Z,40.00
2023-05-09T04:15:41.516Z,44.00
2023-05-09T04:25:48.340Z,52.00
2023-05-09T04:35:55.541Z,288.00
2023-05-09T04:46:02.756Z,276.00
2023-05-09T04:56:10.009Z,404.00
2023-05-09T05:06:16.619Z,724.00
2023-05-09T05:16:23.671Z,928.00
2023-05-09T05:26:30.884Z,932.00
2023-05-09T05:36:38.036Z,920.00
2023-05-09T05:46:45.022Z,896.00
2023-05-09T05:56:52.010Z,888.00
2023-05-09T06:06:59.079Z,888.00
2023-05-09T06:17:05.998Z,904.00
2023-05-09T06:27:13.485Z,920.00
2023-05-09T06:37:20.815Z,916.00
2023-05-09T06:47:28.352Z,916.00
2023-05-09T06:57:35.340Z,912.00
2023-05-09T07:07:42.432Z,916.00
2023-05-09T07:17:49.010Z,900.00
2023-05-09T07:27:56.589Z,800.00
2023-05-09T07:38:04.839Z,568.00
2023-05-09T07:48:11.665Z,528.00
2023-05-09T07:58:18.492Z,384.00
2023-05-09T08:08:25.564Z,348.00
2023-05-09T08:18:32.315Z,344.00
2023-05-09T08:28:39.461Z,424.00
2023-05-09T08:38:46.379Z,484.00
2023-05-09T08:48:53.595Z,476.00
2023-05-09T08:59:00.625Z,256.00
2023-05-09T09:09:07.590Z,296.00
2023-05-09T09:19:15.215Z,212.00
2023-05-09T09:29:23.310Z,168.00
2023-05-09T09:39:31.097Z,156.00
2023-05-09T09:49:38.205Z,148.00
2023-05-09T09:59:45.146Z,168.00
2023-05-09T10:09:52.038Z,144.00
2023-05-09T10:19:59.025Z,232.00
2023-05-09T10:30:06.247Z,220.00
2023-05-09T10:40:12.912Z,220.00
2023-05-09T10:50:20.021Z,132.00
2023-05-09T11:00:27.122Z,128.00
2023-05-09T11:10:34.598Z,132.00
2023-05-09T11:20:42.530Z,132.00
2023-05-09T11:30:49.477Z,132.00
2023-05-09T11:40:56.689Z,232.00
2023-05-09T11:51:03.717Z,136.00
2023-05-09T12:01:12.249Z,136.00
2023-05-09T12:11:19.757Z,132.00
2023-05-09T12:21:26.352Z,128.00
2023-05-09T12:31:33.817Z,128.00
2023-05-09T12:41:53.472Z,128.00
2023-05-09T12:51:53.663Z,132.00
2023-05-09T13:02:01.165Z,132.00
2023-05-09T13:12:08.742Z,136.00
2023-05-09T13:22:15.975Z,136.00
2023-05-09T13:32:23.313Z,136.00
2023-05-09T13:42:29.549Z,132.00
2023-05-09T13:52:36.095Z,176.00
2023-05-09T14:02:43.325Z,124.00
2023-05-09T14:12:51.124Z,132.00
2023-05-09T14:22:58.267Z,132.00
2023-05-09T14:33:05.104Z,128.00
2023-05-09T14:43:12.634Z,128.00
2023-05-09T14:53:20.283Z,128.00
2023-05-09T15:03:27.453Z,128.00
2023-05-09T15:13:34.380Z,120.00
2023-05-09T15:23:41.089Z,184.00
2023-05-09T15:33:48.497Z,120.00
2023-05-09T15:43:55.272Z,124.00
2023-05-09T15:54:01.653Z,120.00
2023-05-09T16:04:08.586Z,116.00
2023-05-09T16:14:15.828Z,116.00
2023-05-09T16:24:23.833Z,112.00
2023-05-09T16:34:30.673Z,108.00
2023-05-09T16:44:37.887Z,104.00
2023-05-09T16:54:44.858Z,100.00
2023-05-09T17:04:52.130Z,132.00
2023-05-09T17:14:59.051Z,88.00
2023-05-09T17:25:06.304Z,84.00
2023-05-09T17:35:13.002Z,64.00
2023-05-09T17:45:20.238Z,52.00
2023-05-09T17:55:27.050Z,44.00
2023-05-09T18:05:34.080Z,24.00
2023-05-09T18:15:41.097Z,8.00
2023-05-09T18:25:48.171Z,4.00
2023-05-09T18:35:55.075Z,4.00
2023-05-09T18:46:02.124Z,0.00
2023-05-09T18:56:09.269Z,0.00
2023-05-09T19:06:16.566Z,0.00
2023-05-09T19:16:24.301Z,0.00
2023-05-09T19:26:31.545Z,0.00
2023-05-09T19:36:38.697Z,0.00
2023-05-09T19:46:45.637Z,0.00
2023-05-09T19:56:52.692Z,0.00
2023-05-09T20:07:00.024Z,0.00
2023-05-09T20:17:07.399Z,0.00
2023-05-09T20:27:14.563Z,0.00
2023-05-09T20:37:21.830Z,0.00
2023-05-09T20:47:28.538Z,0.00
2023-05-09T20:57:35.447Z,0.00
2023-05-09T21:07:42.624Z,0.00
2023-05-09T21:17:50.018Z,0.00
2023-05-09T21:27:57.276Z,0.00
2023-05-09T21:38:04.270Z,0.00
2023-05-09T21:48:11.943Z,0.00
2023-05-09T21:58:19.267Z,0.00
2023-05-09T22:08:26.187Z,0.00
2023-05-09T22:18:33.246Z,0.00
2023-05-09T22:28:40.004Z,0.00
2023-05-09T22:38:47.245Z,0.00
2023-05-09T22:48:54.304Z,0.00
2023-05-09T22:59:01.462Z,0.00
2023-05-09T23:09:08.681Z,0.00
2023-05-09T23:19:15.602Z,0.00
2023-05-09T23:29:22.189Z,0.00
2023-05-09T23:39:28.637Z,0.00
2023-05-09T23:49:35.495Z,0.00
2023-05-09T23:59:42.241Z,0.00
